Time;durP1;ratioP1;P1;durP2;ratioP2;P2;SDS_P1;SDS_P2;PMS_P1;PMS_P2;Temp;Humidity;BMP_temperature;BMP_pressure;BME280_temperature;BME280_humidity;BME280_pressure;Samples;Min_cycle;Max_cycle;Signal;HPM_P1;HPM_P2
2022/02/28 00:02:03;;;;;;;0.80;0.50;;;0.50;92.90;;;;;;5039319;28;20450;-80
2022/02/28 00:04:30;;;;;;;0.50;0.50;;;0.50;93.20;;;;;;5039795;28;20473;-80
2022/02/28 00:06:56;;;;;;;0.40;0.40;;;0.40;94.30;;;;;;5037714;28;20805;-80
2022/02/28 00:09:23;;;;;;;0.30;0.30;;;0.40;94.20;;;;;;5038075;28;20482;-80
2022/02/28 00:11:50;;;;;;;0.40;0.40;;;0.40;94.30;;;;;;5037546;28;20929;-80
2022/02/28 00:14:17;;;;;;;0.30;0.30;;;0.30;94.20;;;;;;5048746;28;20997;-81
2022/02/28 00:16:44;;;;;;;1.27;1.27;;;0.20;94.60;;;;;;5048134;28;20438;-80
2022/02/28 00:19:12;;;;;;;0.30;0.30;;;0.20;95.30;;;;;;5040464;28;20858;-80
2022/02/28 00:21:39;;;;;;;0.40;0.40;;;0.10;95.60;;;;;;5040968;28;20954;-80
2022/02/28 00:24:07;;;;;;;0.40;0.40;;;0.10;95.60;;;;;;5040640;28;20447;-80
2022/02/28 00:26:34;;;;;;;0.30;0.30;;;0.10;95.90;;;;;;5040587;28;20447;-80
2022/02/28 00:29:00;;;;;;;0.33;0.33;;;0.00;96.30;;;;;;5039532;28;20474;-80
2022/02/28 00:31:27;;;;;;;0.60;0.60;;;0.00;96.10;;;;;;5037801;28;20458;-80
2022/02/28 00:33:54;;;;;;;0.30;0.30;;;-0.10;96.20;;;;;;5037688;28;20455;-80
2022/02/28 00:36:22;;;;;;;0.50;0.50;;;0.00;96.20;;;;;;5038297;28;20769;-80
2022/02/28 00:38:49;;;;;;;0.97;0.97;;;-0.10;96.40;;;;;;5038036;28;20985;-80
2022/02/28 00:41:16;;;;;;;0.30;0.30;;;-0.20;96.90;;;;;;5038119;28;20482;-80
2022/02/28 00:43:43;;;;;;;0.30;0.30;;;-0.20;98.10;;;;;;5038798;28;20437;-80
2022/02/28 00:46:09;;;;;;;0.30;0.30;;;-0.30;98.80;;;;;;5038714;28;20432;-80
2022/02/28 00:48:36;;;;;;;0.40;0.40;;;-0.30;99.40;;;;;;5039484;28;20829;-81
2022/02/28 00:51:03;;;;;;;0.87;0.63;;;-0.30;99.90;;;;;;5039570;28;20449;-80
2022/02/28 00:53:31;;;;;;;0.60;0.60;;;-0.30;99.90;;;;;;5039199;28;20822;-81
2022/02/28 00:55:58;;;;;;;0.40;0.40;;;-0.30;99.90;;;;;;5040303;28;20429;-81
2022/02/28 00:58:25;;;;;;;0.50;0.50;;;-0.30;99.90;;;;;;5039651;28;20441;-81
2022/02/28 01:00:52;;;;;;;0.30;0.20;;;-0.30;99.90;;;;;;5041050;28;20858;-81
2022/02/28 01:03:21;;;;;;;0.30;0.30;;;-0.40;99.90;;;;;;5041034;28;20450;-81
2022/02/28 01:05:47;;;;;;;0.40;0.40;;;-0.40;99.90;;;;;;5041087;28;20418;-80
2022/02/28 01:08:14;;;;;;;0.30;0.30;;;-0.40;99.90;;;;;;5041830;28;20835;-81
2022/02/28 01:10:43;;;;;;;0.30;0.30;;;-0.40;99.90;;;;;;5041206;28;20485;-81
2022/02/28 01:13:10;;;;;;;0.30;0.30;;;-0.40;99.90;;;;;;5041564;28;20453;-81
2022/02/28 01:15:38;;;;;;;0.30;0.30;;;-0.40;99.90;;;;;;5042443;28;20458;-80
2022/02/28 01:18:05;;;;;;;0.30;0.30;;;-0.40;99.90;;;;;;5042031;28;20915;-80
2022/02/28 01:20:32;;;;;;;0.30;0.30;;;-0.40;99.90;;;;;;5042078;28;20485;-81
2022/02/28 01:22:59;;;;;;;0.40;0.40;;;-0.40;99.90;;;;;;5042285;28;20439;-81
2022/02/28 01:25:27;;;;;;;0.30;0.30;;;-0.40;99.90;;;;;;5041996;28;20443;-81
2022/02/28 01:27:55;;;;;;;0.30;0.30;;;-0.40;99.90;;;;;;5043942;28;20467;-80
2022/02/28 01:30:22;;;;;;;0.30;0.30;;;-0.40;99.90;;;;;;5045658;28;20429;-81
2022/02/28 01:32:49;;;;;;;0.30;0.20;;;-0.50;99.90;;;;;;5045386;28;20462;-81
2022/02/28 01:35:16;;;;;;;0.30;0.30;;;-0.50;99.90;;;;;;5044816;28;20446;-81
2022/02/28 01:37:44;;;;;;;0.30;0.30;;;-0.50;99.90;;;;;;5044400;28;20457;-81
2022/02/28 01:40:14;;;;;;;0.50;0.50;;;-0.50;99.90;;;;;;5046227;28;20465;-81
2022/02/28 01:42:42;;;;;;;0.30;0.30;;;-0.50;99.90;;;;;;5045563;28;20751;-81
2022/02/28 01:45:12;;;;;;;0.30;0.30;;;-0.50;99.90;;;;;;5045908;28;20451;-81
2022/02/28 01:47:38;;;;;;;0.40;0.40;;;-0.50;99.90;;;;;;5046470;28;20429;-81
2022/02/28 01:50:07;;;;;;;0.40;0.40;;;-0.50;99.90;;;;;;5045989;28;20417;-81
2022/02/28 01:52:34;;;;;;;0.57;0.57;;;-0.50;99.90;;;;;;5044866;28;20428;-81
2022/02/28 01:55:01;;;;;;;0.30;0.30;;;-0.50;99.90;;;;;;5047329;28;20439;-81
2022/02/28 01:57:27;;;;;;;0.40;0.40;;;-0.50;99.90;;;;;;5046516;28;20480;-81
2022/02/28 01:59:54;;;;;;;0.50;0.50;;;-0.60;99.90;;;;;;5046405;28;20487;-81
2022/02/28 02:02:22;;;;;;;0.30;0.30;;;-0.50;99.90;;;;;;5046137;28;20435;-81
2022/02/28 02:04:49;;;;;;;0.30;0.20;;;-0.60;99.90;;;;;;5045603;28;20447;-81
2022/02/28 02:07:16;;;;;;;0.30;0.30;;;-0.60;99.90;;;;;;5045815;28;20490;-81
2022/02/28 02:09:43;;;;;;;1.37;0.83;;;-0.60;99.90;;;;;;5046045;28;20489;-81
2022/02/28 02:12:11;;;;;;;0.40;0.40;;;-0.70;99.90;;;;;;5046523;28;20438;-82
2022/02/28 02:14:38;;;;;;;0.83;0.83;;;-0.70;99.90;;;;;;5046415;28;20450;-81
2022/02/28 02:17:05;;;;;;;0.30;0.30;;;-0.70;99.90;;;;;;5046670;28;20936;-81
2022/02/28 02:19:36;;;;;;;0.50;0.47;;;-0.70;99.90;;;;;;5047164;28;20470;-81
2022/02/28 02:22:06;;;;;;;0.40;0.40;;;-0.80;99.90;;;;;;5046720;28;20430;-82
2022/02/28 02:24:33;;;;;;;0.30;0.30;;;-0.80;99.90;;;;;;5048421;28;20431;-81
2022/02/28 02:27:00;;;;;;;0.30;0.30;;;-0.80;99.90;;;;;;5051507;28;20450;-82
2022/02/28 02:29:27;;;;;;;0.40;0.40;;;-0.90;99.90;;;;;;5051652;28;20909;-82
2022/02/28 02:31:53;;;;;;;0.60;0.40;;;-0.80;99.90;;;;;;5052233;28;20447;-82
2022/02/28 02:34:20;;;;;;;0.30;0.30;;;-0.80;99.90;;;;;;5051897;28;20447;-82
2022/02/28 02:36:47;;;;;;;0.40;0.40;;;-0.70;99.90;;;;;;5052374;28;20441;-82
2022/02/28 02:39:15;;;;;;;0.30;0.30;;;-0.70;99.90;;;;;;5052210;28;20461;-82
2022/02/28 02:41:42;;;;;;;0.40;0.30;;;-0.60;99.90;;;;;;5051327;28;20478;-81
2022/02/28 02:44:09;;;;;;;0.40;0.40;;;-0.60;99.90;;;;;;5051997;28;20529;-82
2022/02/28 02:46:45;;;;;;;0.30;0.20;;;-0.50;99.90;;;;;;5051784;28;20549;-82
2022/02/28 02:49:13;;;;;;;0.30;0.30;;;-0.50;99.90;;;;;;5052337;28;20467;-81
2022/02/28 02:51:40;;;;;;;1.27;0.90;;;-0.50;99.90;;;;;;5051675;28;20478;-82
2022/02/28 02:54:07;;;;;;;0.30;0.30;;;-0.50;99.90;;;;;;5051709;28;20438;-82
2022/02/28 02:56:36;;;;;;;0.30;0.30;;;-0.50;99.90;;;;;;5051074;28;20457;-82
2022/02/28 02:59:03;;;;;;;0.30;0.30;;;-0.50;99.90;;;;;;5051610;28;20466;-83
2022/02/28 03:01:30;;;;;;;0.53;0.53;;;-0.60;99.90;;;;;;5052575;28;20527;-82
2022/02/28 03:03:57;;;;;;;0.30;0.30;;;-0.60;99.90;;;;;;5052555;28;20443;-82
2022/02/28 03:06:26;;;;;;;0.30;0.30;;;-0.70;99.90;;;;;;5052041;28;20453;-82
2022/02/28 03:08:54;;;;;;;2.57;2.20;;;-0.80;99.90;;;;;;5052591;28;20806;-82
2022/02/28 03:11:20;;;;;;;0.30;0.30;;;-0.90;99.90;;;;;;5052773;28;20427;-82
2022/02/28 03:13:49;;;;;;;0.40;0.30;;;-1.00;99.90;;;;;;5052262;28;20477;-82
2022/02/28 03:16:15;;;;;;;1.90;0.87;;;-1.00;99.90;;;;;;5052061;28;20450;-82
2022/02/28 03:18:42;;;;;;;0.97;0.97;;;-1.10;99.90;;;;;;5051621;28;20477;-82
2022/02/28 03:21:09;;;;;;;0.30;0.30;;;-1.00;99.90;;;;;;5051056;28;20543;-82
2022/02/28 03:23:36;;;;;;;3.43;1.37;;;-1.10;99.90;;;;;;5051857;28;20432;-82
2022/02/28 03:26:03;;;;;;;0.30;0.30;;;-1.10;99.90;;;;;;5051707;28;20450;-82
2022/02/28 03:28:29;;;;;;;0.30;0.30;;;-1.10;99.90;;;;;;5052010;28;20431;-83
2022/02/28 03:30:57;;;;;;;0.40;0.40;;;-1.10;99.90;;;;;;5053062;28;20450;-82
2022/02/28 03:33:24;;;;;;;0.30;0.30;;;-1.20;99.90;;;;;;5052345;28;20417;-82
2022/02/28 03:35:51;;;;;;;0.30;0.30;;;-1.20;99.90;;;;;;5052469;28;20466;-82
2022/02/28 03:38:17;;;;;;;0.40;0.40;;;-1.20;99.90;;;;;;5051853;28;20473;-82
2022/02/28 03:40:45;;;;;;;0.33;0.33;;;-1.20;99.90;;;;;;5050921;28;20486;-82
2022/02/28 03:43:12;;;;;;;0.30;0.30;;;-1.20;99.90;;;;;;5051548;28;20425;-82
2022/02/28 03:45:39;;;;;;;0.30;0.30;;;-1.20;99.90;;;;;;5050264;28;20450;-83
2022/02/28 03:48:07;;;;;;;0.30;0.30;;;-1.20;99.90;;;;;;5050446;28;20471;-82
2022/02/28 03:50:34;;;;;;;0.30;0.30;;;-1.20;99.90;;;;;;5050627;28;20443;-83
2022/02/28 03:53:00;;;;;;;0.30;0.30;;;-1.20;99.90;;;;;;5050121;28;20441;-83
2022/02/28 03:55:27;;;;;;;0.30;0.30;;;-1.20;99.90;;;;;;5050417;28;20409;-83
2022/02/28 03:57:54;;;;;;;0.30;0.30;;;-1.20;99.90;;;;;;5050495;28;20437;-83
2022/02/28 04:00:21;;;;;;;0.30;0.30;;;-1.10;99.90;;;;;;5050349;28;20410;-83
2022/02/28 04:02:48;;;;;;;0.30;0.30;;;-1.20;99.90;;;;;;5050161;28;20439;-84
2022/02/28 04:05:17;;;;;;;0.53;0.53;;;-1.10;99.90;;;;;;5049882;28;20413;-83
2022/02/28 04:07:47;;;;;;;0.30;0.30;;;-1.10;99.90;;;;;;5050768;28;20463;-82
2022/02/28 04:10:15;;;;;;;0.30;0.30;;;-1.10;99.90;;;;;;5049814;28;20449;-82
2022/02/28 04:12:43;;;;;;;0.30;0.30;;;-1.10;99.90;;;;;;5050295;28;20451;-82
2022/02/28 04:15:10;;;;;;;0.30;0.30;;;-1.10;99.90;;;;;;5050430;28;20446;-83
2022/02/28 04:17:37;;;;;;;0.70;0.70;;;-1.10;99.90;;;;;;5049885;28;20433;-83
2022/02/28 04:20:05;;;;;;;0.30;0.30;;;-1.20;99.90;;;;;;5050306;28;20453;-82
2022/02/28 04:22:33;;;;;;;0.50;0.50;;;-1.30;99.90;;;;;;5049911;28;20998;-82
2022/02/28 04:25:00;;;;;;;0.30;0.30;;;-1.30;99.90;;;;;;5050682;28;20515;-82
2022/02/28 04:27:27;;;;;;;0.50;0.50;;;-1.30;99.90;;;;;;5049357;28;20451;-82
2022/02/28 04:29:53;;;;;;;0.30;0.30;;;-1.30;99.90;;;;;;5051116;28;20443;-82
2022/02/28 04:32:21;;;;;;;0.30;0.30;;;-1.30;99.90;;;;;;5050877;28;20435;-83
2022/02/28 04:34:48;;;;;;;0.77;0.77;;;-1.30;99.90;;;;;;5050080;28;20525;-82
2022/02/28 04:37:15;;;;;;;0.40;0.40;;;-1.40;99.90;;;;;;5050286;28;20443;-83
2022/02/28 04:39:43;;;;;;;0.30;0.30;;;-1.40;99.90;;;;;;5050167;28;20405;-83
2022/02/28 04:42:10;;;;;;;0.30;0.30;;;-1.40;99.90;;;;;;5050537;28;20993;-82
2022/02/28 04:44:36;;;;;;;0.80;0.47;;;-1.40;99.90;;;;;;5050488;28;20522;-83
2022/02/28 04:47:04;;;;;;;0.30;0.30;;;-1.50;99.90;;;;;;5049916;28;20435;-83
2022/02/28 04:49:31;;;;;;;0.30;0.30;;;-1.50;99.90;;;;;;5048970;28;20457;-83
2022/02/28 04:51:57;;;;;;;1.53;0.67;;;-1.50;99.90;;;;;;5050058;28;20450;-82
2022/02/28 04:54:24;;;;;;;0.30;0.30;;;-1.60;99.90;;;;;;5050078;28;20442;-83
2022/02/28 04:56:52;;;;;;;0.33;0.33;;;-1.60;99.90;;;;;;5049910;28;20431;-83
2022/02/28 04:59:19;;;;;;;0.30;0.30;;;-1.60;99.90;;;;;;5052368;28;20458;-83
2022/02/28 05:01:46;;;;;;;0.37;0.37;;;-1.60;99.90;;;;;;5052071;28;21006;-83
2022/02/28 05:04:13;;;;;;;0.40;0.40;;;-1.60;99.90;;;;;;5052546;28;20488;-83
2022/02/28 05:06:39;;;;;;;0.30;0.30;;;-1.60;99.90;;;;;;5053064;28;20432;-83
2022/02/28 05:09:07;;;;;;;0.40;0.40;;;-1.60;99.90;;;;;;5052496;28;20558;-83
2022/02/28 05:11:33;;;;;;;0.30;0.30;;;-1.60;99.90;;;;;;5052551;28;20410;-83
2022/02/28 05:14:02;;;;;;;0.30;0.30;;;-1.70;99.90;;;;;;5052804;28;20424;-83
2022/02/28 05:16:28;;;;;;;0.77;0.77;;;-1.70;99.90;;;;;;5052727;28;20448;-82
2022/02/28 05:18:55;;;;;;;0.30;0.30;;;-1.70;99.90;;;;;;5053071;28;20526;-83
2022/02/28 05:21:22;;;;;;;0.67;0.67;;;-1.70;99.90;;;;;;5052310;28;20558;-83
2022/02/28 05:23:49;;;;;;;0.30;0.30;;;-1.70;99.90;;;;;;5052339;28;20434;-83
2022/02/28 05:26:15;;;;;;;0.30;0.30;;;-1.70;99.90;;;;;;5052075;28;20456;-83
2022/02/28 05:28:42;;;;;;;0.37;0.37;;;-1.60;99.90;;;;;;5052787;28;20966;-82
2022/02/28 05:31:10;;;;;;;0.30;0.30;;;-1.60;99.90;;;;;;5052123;28;20435;-82
2022/02/28 05:33:37;;;;;;;0.30;0.30;;;-1.60;99.90;;;;;;5052388;28;20951;-83
2022/02/28 05:36:05;;;;;;;0.43;0.43;;;-1.70;99.90;;;;;;5052051;28;20494;-82
2022/02/28 05:38:31;;;;;;;2.73;2.60;;;-1.70;99.90;;;;;;5051079;28;20465;-83
2022/02/28 05:40:59;;;;;;;0.33;0.33;;;-1.80;99.90;;;;;;5051346;28;20474;-83
2022/02/28 05:43:26;;;;;;;0.30;0.30;;;-1.80;99.90;;;;;;5051443;28;20450;-83
2022/02/28 05:45:52;;;;;;;0.40;0.40;;;-1.70;99.90;;;;;;5051702;28;20457;-82
2022/02/28 05:48:21;;;;;;;0.50;0.50;;;-1.80;99.90;;;;;;5051508;28;20461;-83
2022/02/28 05:50:47;;;;;;;0.30;0.30;;;-1.80;99.90;;;;;;5050709;28;20527;-83
2022/02/28 05:53:14;;;;;;;0.30;0.30;;;-1.80;99.90;;;;;;5050440;28;20930;-83
2022/02/28 05:55:41;;;;;;;0.30;0.30;;;-1.70;99.90;;;;;;5049905;28;20421;-83
2022/02/28 05:58:08;;;;;;;0.30;0.30;;;-1.80;99.90;;;;;;5050474;28;20434;-83
2022/02/28 06:00:35;;;;;;;0.30;0.30;;;-1.70;99.90;;;;;;5053495;28;20502;-83
2022/02/28 06:03:02;;;;;;;0.30;0.30;;;-1.80;99.90;;;;;;5054556;28;20470;-83
2022/02/28 06:05:30;;;;;;;0.40;0.40;;;-1.70;99.90;;;;;;5054530;28;20433;-83
2022/02/28 06:07:56;;;;;;;0.30;0.30;;;-1.80;99.90;;;;;;5054715;28;20457;-83
2022/02/28 06:10:23;;;;;;;0.40;0.40;;;-1.80;99.90;;;;;;5055175;28;20450;-82
2022/02/28 06:12:50;;;;;;;0.30;0.30;;;-1.70;99.90;;;;;;5055175;28;20498;-83
2022/02/28 06:15:17;;;;;;;0.87;0.50;;;-1.70;99.90;;;;;;5053415;28;20501;-82
2022/02/28 06:17:44;;;;;;;1.17;1.13;;;-1.70;99.90;;;;;;5054022;28;20522;-82
2022/02/28 06:20:12;;;;;;;0.40;0.40;;;-1.70;99.90;;;;;;5054013;28;20435;-83
2022/02/28 06:22:40;;;;;;;0.30;0.30;;;-1.70;99.90;;;;;;5052647;28;21024;-84
2022/02/28 06:25:07;;;;;;;0.30;0.30;;;-1.60;99.90;;;;;;5053389;28;20507;-84
2022/02/28 06:27:34;;;;;;;0.30;0.20;;;-1.60;99.90;;;;;;5053535;28;20557;-84
2022/02/28 06:30:00;;;;;;;0.53;0.53;;;-1.60;99.90;;;;;;5050408;28;20952;-81
2022/02/28 06:32:27;;;;;;;0.30;0.30;;;-1.50;99.90;;;;;;5040924;28;20422;-82
2022/02/28 06:34:55;;;;;;;0.30;0.30;;;-1.50;99.90;;;;;;5040373;28;20473;-82
2022/02/28 06:37:22;;;;;;;0.90;0.90;;;-1.50;99.90;;;;;;5039626;28;20468;-82
2022/02/28 06:39:50;;;;;;;0.30;0.30;;;-1.40;99.90;;;;;;5039233;28;20465;-82
2022/02/28 06:42:16;;;;;;;0.93;0.93;;;-1.40;99.90;;;;;;5039106;28;20481;-81
2022/02/28 06:44:43;;;;;;;0.30;0.30;;;-1.30;99.90;;;;;;5039301;28;20451;-81
2022/02/28 06:47:10;;;;;;;0.30;0.30;;;-1.30;99.90;;;;;;5039889;28;20447;-81
2022/02/28 06:49:37;;;;;;;0.30;0.30;;;-1.40;99.90;;;;;;5038741;28;20453;-82
2022/02/28 06:52:04;;;;;;;0.50;0.50;;;-1.30;99.90;;;;;;5039670;28;20446;-82
2022/02/28 06:54:31;;;;;;;0.30;0.30;;;-1.30;99.90;;;;;;5039105;28;20443;-82
2022/02/28 06:56:59;;;;;;;1.53;1.43;;;-1.30;99.90;;;;;;5038987;28;20946;-82
2022/02/28 06:59:26;;;;;;;0.30;0.30;;;-1.20;99.90;;;;;;5038680;28;20973;-82
2022/02/28 07:01:53;;;;;;;0.90;0.87;;;-1.20;99.90;;;;;;5038767;28;20892;-82
2022/02/28 07:04:20;;;;;;;0.30;0.30;;;-1.10;99.90;;;;;;5039291;28;20457;-82
2022/02/28 07:06:46;;;;;;;0.30;0.30;;;-1.00;99.90;;;;;;5039869;28;20969;-82
2022/02/28 07:09:13;;;;;;;1.00;0.40;;;-0.90;99.90;;;;;;5039349;28;20498;-82
2022/02/28 07:11:40;;;;;;;1.80;1.40;;;-0.90;99.90;;;;;;5039451;28;20434;-82
2022/02/28 07:14:09;;;;;;;0.67;0.67;;;-0.70;99.90;;;;;;5037705;28;20439;-81
2022/02/28 07:16:36;;;;;;;1.13;0.70;;;-0.70;99.90;;;;;;5037484;28;20447;-81
2022/02/28 07:19:02;;;;;;;0.60;0.60;;;-0.50;99.90;;;;;;5037421;28;20838;-81
2022/02/28 07:21:29;;;;;;;0.30;0.30;;;-0.40;99.90;;;;;;5036986;28;20463;-81
2022/02/28 07:23:57;;;;;;;0.40;0.40;;;-0.30;99.90;;;;;;5036720;28;20899;-81
2022/02/28 07:26:24;;;;;;;0.30;0.30;;;-0.20;99.90;;;;;;5036634;28;20446;-81
2022/02/28 07:28:53;;;;;;;0.30;0.30;;;-0.10;99.90;;;;;;5037581;28;20462;-81
2022/02/28 07:31:21;;;;;;;0.30;0.30;;;-0.10;99.90;;;;;;5036738;28;20411;-81
2022/02/28 07:33:48;;;;;;;0.30;0.30;;;0.00;99.90;;;;;;5036450;28;20438;-81
2022/02/28 07:36:15;;;;;;;0.50;0.50;;;0.20;99.90;;;;;;5036126;28;20809;-81
2022/02/28 07:38:42;;;;;;;0.73;0.73;;;0.20;99.90;;;;;;5036233;28;20537;-81
2022/02/28 07:41:09;;;;;;;0.40;0.40;;;0.30;99.90;;;;;;5035911;28;20775;-81
2022/02/28 07:43:36;;;;;;;1.27;1.27;;;0.40;99.90;;;;;;5036125;28;20469;-81
2022/02/28 07:46:03;;;;;;;0.30;0.20;;;0.50;99.90;;;;;;5035992;28;20434;-81
2022/02/28 07:48:31;;;;;;;0.30;0.30;;;0.50;99.90;;;;;;5036108;28;20471;-81
2022/02/28 07:50:58;;;;;;;0.53;0.53;;;0.70;99.90;;;;;;5036196;28;20416;-81
2022/02/28 07:53:25;;;;;;;0.30;0.30;;;0.80;99.90;;;;;;5036118;28;20848;-81
2022/02/28 07:55:51;;;;;;;1.03;0.93;;;0.80;99.90;;;;;;5035964;28;20431;-81
2022/02/28 07:58:18;;;;;;;3.90;1.17;;;1.00;99.90;;;;;;5036029;28;20846;-81
2022/02/28 08:00:45;;;;;;;0.40;0.40;;;1.00;99.90;;;;;;5036659;28;20455;-82
2022/02/28 08:03:11;;;;;;;0.50;0.50;;;1.20;99.90;;;;;;5036915;28;20478;-82
2022/02/28 08:05:40;;;;;;;0.30;0.30;;;1.30;99.90;;;;;;5037555;28;20458;-82
2022/02/28 08:08:07;;;;;;;0.63;0.57;;;1.30;99.90;;;;;;5037027;28;20467;-82
2022/02/28 08:10:34;;;;;;;0.30;0.30;;;1.40;99.90;;;;;;5036654;28;20525;-81
2022/02/28 08:13:01;;;;;;;0.80;0.50;;;1.40;99.90;;;;;;5037155;28;20447;-81
2022/02/28 08:15:28;;;;;;;0.30;0.30;;;1.50;99.90;;;;;;5037259;28;20439;-81
2022/02/28 08:17:55;;;;;;;0.30;0.30;;;1.70;99.90;;;;;;5036399;28;21012;-81
2022/02/28 08:20:21;;;;;;;0.30;0.30;;;1.80;99.90;;;;;;5036245;28;20453;-81
2022/02/28 08:22:49;;;;;;;0.30;0.30;;;1.90;99.90;;;;;;5036052;28;20505;-81
2022/02/28 08:25:16;;;;;;;0.30;0.30;;;1.90;99.90;;;;;;5036133;28;20926;-81
2022/02/28 08:27:43;;;;;;;0.30;0.30;;;2.00;99.90;;;;;;5037022;28;20474;-81
2022/02/28 08:30:11;;;;;;;0.93;0.47;;;2.00;99.90;;;;;;5037764;28;20447;-81
2022/02/28 08:32:37;;;;;;;0.30;0.30;;;2.10;99.90;;;;;;5039820;28;20459;-81
2022/02/28 08:35:05;;;;;;;2.00;1.90;;;2.20;99.90;;;;;;5039432;28;20463;-81
2022/02/28 08:37:32;;;;;;;0.30;0.30;;;2.30;99.90;;;;;;5039733;28;20977;-80
2022/02/28 08:40:01;;;;;;;0.30;0.20;;;2.50;99.90;;;;;;5041327;28;20806;-80
2022/02/28 08:42:27;;;;;;;0.30;0.30;;;2.70;99.90;;;;;;5039824;28;21020;-80
2022/02/28 08:44:54;;;;;;;0.30;0.30;;;2.80;99.90;;;;;;5039242;28;20442;-80
2022/02/28 08:47:21;;;;;;;0.30;0.30;;;3.00;99.90;;;;;;5039194;28;20527;-80
2022/02/28 08:49:48;;;;;;;0.33;0.33;;;3.10;99.90;;;;;;5038620;28;20811;-80
2022/02/28 08:52:14;;;;;;;0.30;0.20;;;3.20;99.90;;;;;;5038837;28;20953;-80
2022/02/28 08:54:41;;;;;;;0.30;0.30;;;3.40;99.90;;;;;;5038842;28;20447;-80
2022/02/28 08:57:09;;;;;;;0.33;0.33;;;3.50;99.90;;;;;;5039133;28;20965;-80
2022/02/28 08:59:36;;;;;;;0.77;0.77;;;3.60;99.90;;;;;;5038428;28;20447;-80
2022/02/28 09:02:04;;;;;;;0.30;0.30;;;3.80;99.90;;;;;;5035064;28;21012;-80
2022/02/28 09:04:31;;;;;;;0.40;0.40;;;4.10;99.90;;;;;;5039230;28;20801;-80
2022/02/28 09:06:58;;;;;;;0.30;0.30;;;4.40;99.90;;;;;;5039212;28;20435;-80
2022/02/28 09:09:25;;;;;;;0.40;0.40;;;4.80;99.90;;;;;;5037340;28;20486;-80
2022/02/28 09:11:51;;;;;;;0.50;0.50;;;5.40;99.10;;;;;;5033805;28;20450;-81
2022/02/28 09:14:20;;;;;;;0.30;0.20;;;6.30;96.60;;;;;;5033467;28;20926;-81
2022/02/28 09:16:46;;;;;;;0.83;0.40;;;7.40;94.30;;;;;;5033819;28;20442;-80
2022/02/28 09:19:13;;;;;;;0.70;0.30;;;8.70;90.30;;;;;;5033532;28;20467;-84
2022/02/28 09:21:40;;;;;;;1.60;0.57;;;9.70;85.70;;;;;;5033118;28;20921;-82
2022/02/28 09:24:07;;;;;;;0.40;0.40;;;10.80;74.60;;;;;;5033076;28;20475;-83
2022/02/28 09:26:36;;;;;;;0.57;0.57;;;11.90;67.40;;;;;;5033417;28;20457;-82
2022/02/28 09:29:03;;;;;;;0.30;0.20;;;13.30;61.30;;;;;;5033346;28;20494;-83
2022/02/28 09:31:31;;;;;;;0.87;0.57;;;14.00;56.50;;;;;;5033340;28;20801;-82
2022/02/28 09:33:58;;;;;;;1.07;0.60;;;14.90;54.10;;;;;;5035374;28;20473;-82
2022/02/28 09:36:24;;;;;;;3.70;0.57;;;15.10;51.40;;;;;;5037475;28;20435;-82
2022/02/28 09:38:51;;;;;;;0.63;0.63;;;15.20;50.10;;;;;;5037044;28;20985;-81
2022/02/28 09:41:19;;;;;;;0.53;0.53;;;15.80;49.40;;;;;;5038049;28;20450;-81
2022/02/28 09:43:46;;;;;;;0.80;0.50;;;16.30;48.50;;;;;;5037009;28;20914;-81
2022/02/28 09:46:14;;;;;;;1.10;0.83;;;16.80;45.60;;;;;;5037231;28;20450;-81
2022/02/28 09:48:44;;;;;;;2.00;1.23;;;16.60;45.70;;;;;;5037275;28;20482;-81
2022/02/28 09:51:11;;;;;;;1.87;1.37;;;17.10;45.00;;;;;;5037218;28;20439;-81
2022/02/28 09:53:38;;;;;;;2.50;1.03;;;17.10;44.90;;;;;;5037067;28;20474;-81
2022/02/28 09:56:05;;;;;;;1.17;0.73;;;17.00;44.60;;;;;;5036982;28;20457;-81
2022/02/28 09:58:33;;;;;;;2.23;1.37;;;17.00;43.70;;;;;;5036991;28;20894;-81
2022/02/28 10:01:01;;;;;;;1.37;0.70;;;16.90;44.10;;;;;;5036651;28;20817;-81
2022/02/28 10:03:28;;;;;;;1.37;0.93;;;16.30;43.80;;;;;;5036959;28;20431;-82
2022/02/28 10:06:01;;;;;;;2.33;0.97;;;16.00;43.70;;;;;;5036919;28;20457;-82
2022/02/28 10:08:39;;;;;;;1.80;1.00;;;15.70;44.10;;;;;;5036776;28;20474;-82
2022/02/28 10:11:08;;;;;;;0.93;0.80;;;15.20;44.00;;;;;;5036425;28;20482;-82
2022/02/28 10:13:38;;;;;;;0.53;0.53;;;14.70;46.10;;;;;;5036748;28;20483;-82
2022/02/28 10:16:05;;;;;;;5.40;1.13;;;14.40;48.10;;;;;;5036751;28;20431;-82
2022/02/28 10:18:32;;;;;;;2.30;0.83;;;14.00;46.50;;;;;;5036295;28;20470;-83
2022/02/28 10:21:00;;;;;;;2.73;1.53;;;14.00;47.20;;;;;;5036683;28;20435;-83
2022/02/28 10:23:27;;;;;;;3.30;0.80;;;14.10;47.90;;;;;;5036576;28;20435;-82
2022/02/28 10:25:54;;;;;;;1.87;0.90;;;14.20;47.40;;;;;;5037351;28;20774;-82
2022/02/28 10:28:22;;;;;;;4.40;0.93;;;14.80;46.00;;;;;;5036389;28;20467;-82
2022/02/28 10:30:55;;;;;;;1.27;0.80;;;15.50;45.80;;;;;;5036176;28;20426;-82
2022/02/28 10:33:28;;;;;;;3.53;0.93;;;16.40;45.50;;;;;;5036334;28;20471;-82
2022/02/28 10:36:01;;;;;;;3.63;1.03;;;17.00;42.40;;;;;;5037035;28;20454;-82
2022/02/28 10:38:30;;;;;;;1.07;0.50;;;17.90;41.30;;;;;;5035954;28;21004;-82
2022/02/28 10:40:57;;;;;;;3.80;0.70;;;18.30;39.90;;;;;;5036322;28;20431;-81
2022/02/28 10:43:26;;;;;;;2.20;1.10;;;19.10;39.80;;;;;;5036205;28;20431;-82
2022/02/28 10:45:53;;;;;;;3.23;0.60;;;20.20;37.90;;;;;;5035290;28;20415;-81
2022/02/28 10:48:20;;;;;;;0.80;0.80;;;21.50;36.20;;;;;;5036084;28;20476;-81
2022/02/28 10:50:48;;;;;;;1.23;1.10;;;22.10;35.60;;;;;;5036095;28;20442;-82
2022/02/28 10:53:17;;;;;;;1.27;0.97;;;21.80;34.80;;;;;;5035910;28;20473;-80
2022/02/28 10:55:48;;;;;;;1.77;1.00;;;22.10;33.10;;;;;;5036472;28;20455;-80
2022/02/28 10:58:18;;;;;;;2.10;0.97;;;21.10;33.90;;;;;;5035921;28;20473;-80
2022/02/28 11:00:55;;;;;;;1.00;0.90;;;21.00;34.40;;;;;;5035606;28;20864;-80
2022/02/28 11:03:22;;;;;;;1.43;1.33;;;20.50;34.50;;;;;;5035549;28;20937;-80
2022/02/28 11:05:51;;;;;;;1.63;0.93;;;20.20;33.80;;;;;;5035804;28;20453;-80
2022/02/28 11:08:19;;;;;;;2.73;0.93;;;20.00;34.10;;;;;;5035626;28;20473;-80
2022/02/28 11:10:47;;;;;;;1.33;1.20;;;19.40;35.10;;;;;;5035304;28;20473;-79
2022/02/28 11:13:14;;;;;;;4.00;1.20;;;18.70;35.80;;;;;;5035251;28;21009;-79
2022/02/28 11:15:42;;;;;;;4.70;1.00;;;17.20;36.80;;;;;;5035578;28;20482;-79
2022/02/28 11:18:12;;;;;;;3.80;1.10;;;15.70;38.60;;;;;;5035533;28;20499;-81
2022/02/28 11:20:40;;;;;;;0.80;0.50;;;13.80;40.40;;;;;;5035649;28;20852;-79
2022/02/28 11:23:07;;;;;;;1.63;0.67;;;12.40;43.00;;;;;;5035449;28;20434;-79
2022/02/28 11:25:34;;;;;;;2.47;0.77;;;11.40;43.90;;;;;;5035457;28;20450;-80
2022/02/28 11:28:02;;;;;;;3.50;0.70;;;10.90;45.50;;;;;;5034999;28;20474;-79
2022/02/28 11:30:31;;;;;;;0.50;0.43;;;10.50;46.90;;;;;;5035058;28;20454;-79
2022/02/28 11:33:02;;;;;;;0.50;0.40;;;10.30;47.20;;;;;;5035336;28;20486;-79
2022/02/28 11:35:50;;;;;;;2.43;1.23;;;9.90;49.40;;;;;;5035341;28;20435;-79
2022/02/28 11:38:43;;;;;;;0.40;0.40;;;9.60;49.50;;;;;;5034872;28;20471;-79
2022/02/28 11:41:10;;;;;;;1.63;0.70;;;9.50;50.90;;;;;;5024751;28;20451;-79
2022/02/28 11:43:40;;;;;;;1.03;0.60;;;9.50;50.80;;;;;;5035086;28;20538;-80
2022/02/28 11:46:16;;;;;;;0.40;0.40;;;9.40;51.00;;;;;;5035080;28;20435;-80
2022/02/28 11:48:45;;;;;;;0.50;0.50;;;9.50;49.50;;;;;;5034920;28;20473;-80
2022/02/28 11:51:23;;;;;;;0.50;0.40;;;9.50;50.50;;;;;;5034932;28;20875;-79
2022/02/28 11:53:51;;;;;;;1.03;0.60;;;9.40;49.80;;;;;;5034841;28;20839;-79
2022/02/28 11:56:55;;;;;;;0.50;0.50;;;9.40;49.90;;;;;;5034833;28;20446;-79
2022/02/28 11:59:33;;;;;;;0.50;0.50;;;9.20;49.80;;;;;;5034839;28;20469;-79
2022/02/28 12:02:06;;;;;;;0.90;0.43;;;9.20;50.10;;;;;;5034796;28;20427;-80
2022/02/28 12:04:41;;;;;;;0.60;0.40;;;9.20;49.70;;;;;;5034709;28;20803;-79
2022/02/28 12:07:23;;;;;;;0.97;0.67;;;9.10;50.90;;;;;;5034765;28;20433;-80
2022/02/28 12:09:50;;;;;;;1.67;1.60;;;8.80;51.00;;;;;;5034300;28;20478;-79
2022/02/28 12:12:25;;;;;;;0.40;0.37;;;8.70;51.30;;;;;;5034567;28;20450;-83
2022/02/28 12:15:14;;;;;;;0.30;0.30;;;8.50;53.20;;;;;;5034523;28;20474;-80
2022/02/28 12:17:58;;;;;;;0.40;0.40;;;8.60;53.20;;;;;;5034370;28;20475;-81
2022/02/28 12:20:27;;;;;;;1.10;1.03;;;8.70;50.20;;;;;;5037292;28;20435;-81
2022/02/28 12:23:28;;;;;;;0.40;0.40;;;8.70;49.80;;;;;;5034612;28;20462;-82
2022/02/28 12:26:08;;;;;;;0.40;0.40;;;8.60;49.60;;;;;;4981628;28;20818;-83
2022/02/28 12:28:50;;;;;;;16.00;1.13;;;8.50;49.60;;;;;;5034894;28;20462;-83
2022/02/28 12:31:40;;;;;;;0.60;0.60;;;8.40;50.20;;;;;;5035147;28;20522;-82
2022/02/28 12:34:12;;;;;;;0.33;0.30;;;8.10;50.90;;;;;;5047764;28;20526;-82
2022/02/28 12:36:44;;;;;;;0.80;0.60;;;8.10;51.60;;;;;;5037883;28;20427;-82
2022/02/28 12:39:12;;;;;;;1.27;0.67;;;7.90;52.50;;;;;;5034745;28;20498;-81
2022/02/28 12:41:44;;;;;;;0.30;0.30;;;7.80;52.20;;;;;;5034411;28;20458;-80
2022/02/28 12:44:14;;;;;;;3.07;0.90;;;7.70;52.00;;;;;;5033904;28;20435;-81
2022/02/28 12:46:45;;;;;;;0.43;0.37;;;7.60;53.10;;;;;;5034032;28;20462;-79
2022/02/28 12:49:13;;;;;;;1.07;0.67;;;7.70;52.40;;;;;;5034026;28;20570;-79
2022/02/28 12:51:41;;;;;;;0.73;0.30;;;7.90;51.70;;;;;;5034079;28;20446;-78
2022/02/28 12:54:11;;;;;;;0.67;0.33;;;7.90;50.50;;;;;;5034894;28;20474;-78
2022/02/28 12:56:43;;;;;;;12.43;1.33;;;7.80;49.90;;;;;;5034889;28;20450;-78